Time;durP1;ratioP1;P1;durP2;ratioP2;P2;SDS_P1;SDS_P2;PMS_P1;PMS_P2;Temp;Humidity;BMP_temperature;BMP_pressure;BME280_temperature;BME280_humidity;BME280_pressure;Samples;Min_cycle;Max_cycle;Signal;HPM_P1;HPM_P2
2023/12/03 00:00:39;;;;;;;;;;;2.20;96.60;;;;;;5100947;28;20395;-68
2023/12/03 00:03:04;;;;;;;;;;;2.10;96.50;;;;;;5076796;28;19916;-68
2023/12/03 00:05:30;;;;;;;;;;;2.10;96.60;;;;;;5105207;28;19931;-68
2023/12/03 00:07:55;;;;;;;;;;;2.20;96.60;;;;;;5107170;28;20695;-68
2023/12/03 00:10:23;;;;;;;;;;;2.20;96.60;;;;;;5097441;28;22388;-68
2023/12/03 00:12:48;;;;;;;;;;;2.20;96.50;;;;;;5101682;28;19966;-68
2023/12/03 00:15:14;;;;;;;;;;;2.20;96.50;;;;;;5084813;28;19956;-68
2023/12/03 00:17:40;;;;;;;;;;;2.20;96.60;;;;;;5106732;28;19994;-68
2023/12/03 00:20:05;;;;;;;;;;;2.20;96.50;;;;;;5106089;28;19916;-68
2023/12/03 00:22:31;;;;;;;;;;;2.10;96.50;;;;;;5101074;28;20149;-68
2023/12/03 00:24:56;;;;;;;;;;;2.20;96.70;;;;;;5077443;28;20626;-68
2023/12/03 00:27:22;;;;;;;;;;;2.20;96.70;;;;;;5094307;28;20394;-68
2023/12/03 00:29:47;;;;;;;;;;;2.20;96.60;;;;;;5080500;28;19912;-68
2023/12/03 00:32:13;;;;;;;;;;;2.20;96.70;;;;;;5101138;28;20678;-68
2023/12/03 00:34:39;;;;;;;;;;;2.20;96.60;;;;;;5083998;28;20066;-68
2023/12/03 00:37:04;;;;;;;;;;;2.20;96.60;;;;;;5100363;28;19961;-68
2023/12/03 00:39:29;;;;;;;;;;;2.20;96.90;;;;;;5087603;28;20288;-69
2023/12/03 00:41:55;;;;;;;;;;;2.20;96.50;;;;;;5106702;28;19923;-68
2023/12/03 00:44:21;;;;;;;;;;;2.20;96.50;;;;;;5105946;28;19919;-69
2023/12/03 00:46:46;;;;;;;;;;;2.20;96.60;;;;;;5106128;28;19982;-68
2023/12/03 00:49:11;;;;;;;;;;;2.20;96.60;;;;;;5097967;28;19908;-68
2023/12/03 00:51:37;;;;;;;;;;;2.20;96.60;;;;;;5102614;28;19915;-68
2023/12/03 00:54:02;;;;;;;;;;;2.20;96.70;;;;;;5102847;28;19931;-69
2023/12/03 00:56:28;;;;;;;;;;;2.10;96.80;;;;;;5104587;28;20704;-68
2023/12/03 00:58:53;;;;;;;;;;;2.10;96.80;;;;;;5099868;28;19912;-69
2023/12/03 01:01:20;;;;;;;;;;;2.10;96.80;;;;;;5094624;28;19958;-70
2023/12/03 01:03:45;;;;;;;;;;;2.10;96.80;;;;;;5105804;28;20010;-71
2023/12/03 01:06:11;;;;;;;;;;;2.10;96.90;;;;;;5105715;28;20525;-70
2023/12/03 01:08:36;;;;;;;;;;;2.10;96.90;;;;;;5094127;28;19909;-71
2023/12/03 01:11:05;;;;;;;;;;;2.10;96.90;;;;;;5100803;28;19912;-70
2023/12/03 01:13:31;;;;;;;;;;;2.10;96.90;;;;;;5105315;28;19911;-70
2023/12/03 01:15:56;;;;;;;;;;;2.10;96.90;;;;;;5105116;28;19923;-70
2023/12/03 01:18:22;;;;;;;;;;;2.10;96.90;;;;;;5096887;28;19935;-70
2023/12/03 01:20:47;;;;;;;;;;;2.10;96.90;;;;;;5097389;28;19912;-70
2023/12/03 01:23:13;;;;;;;;;;;2.10;96.90;;;;;;5087429;28;19923;-70
2023/12/03 01:25:38;;;;;;;;;;;2.10;97.20;;;;;;5096966;28;19916;-70
2023/12/03 01:28:04;;;;;;;;;;;2.20;96.90;;;;;;5105499;28;19915;-70
2023/12/03 01:30:30;;;;;;;;;;;2.20;96.80;;;;;;5087696;28;19915;-70
2023/12/03 01:32:55;;;;;;;;;;;2.20;96.80;;;;;;5105266;28;19977;-70
2023/12/03 01:35:21;;;;;;;;;;;2.20;96.80;;;;;;5095763;28;19916;-70
2023/12/03 01:37:46;;;;;;;;;;;2.20;96.80;;;;;;5100168;28;20442;-71
2023/12/03 01:40:12;;;;;;;;;;;2.20;96.80;;;;;;5092993;28;19912;-71
2023/12/03 01:42:37;;;;;;;;;;;2.10;96.90;;;;;;5110855;27;20380;-68
2023/12/03 01:45:03;;;;;;;;;;;2.10;96.90;;;;;;5104331;28;19908;-68
2023/12/03 01:47:29;;;;;;;;;;;2.10;96.90;;;;;;5102046;28;19918;-68
2023/12/03 01:49:55;;;;;;;;;;;2.10;96.90;;;;;;5098335;28;19908;-69
2023/12/03 01:52:22;;;;;;;;;;;2.10;96.80;;;;;;5104374;28;19911;-69
2023/12/03 01:54:48;;;;;;;;;;;2.10;96.90;;;;;;5095961;28;19915;-68
2023/12/03 01:57:14;;;;;;;;;;;2.10;96.90;;;;;;5094720;28;19923;-69
2023/12/03 01:59:41;;;;;;;;;;;2.10;97.00;;;;;;5083454;28;20690;-68
2023/12/03 02:02:06;;;;;;;;;;;2.10;97.00;;;;;;5097992;28;19927;-69
2023/12/03 02:04:32;;;;;;;;;;;2.10;97.00;;;;;;5110945;28;19927;-68
2023/12/03 02:06:57;;;;;;;;;;;2.10;97.00;;;;;;5104948;28;19919;-68
2023/12/03 02:09:23;;;;;;;;;;;2.10;97.00;;;;;;5077081;28;20022;-68
2023/12/03 02:11:49;;;;;;;;;;;2.10;97.00;;;;;;5090005;28;19950;-68
2023/12/03 02:14:14;;;;;;;;;;;2.10;97.00;;;;;;5096419;28;19912;-68
2023/12/03 02:16:47;;;;;;;;;;;2.10;97.10;;;;;;5086695;28;19918;-68
2023/12/03 02:19:16;;;;;;;;;;;2.10;97.00;;;;;;5086477;28;20027;-69
2023/12/03 02:21:41;;;;;;;;;;;2.10;97.10;;;;;;5080437;28;19908;-68
2023/12/03 02:24:07;;;;;;;;;;;2.10;97.10;;;;;;5104763;28;20414;-68
2023/12/03 02:26:32;;;;;;;;;;;2.10;97.10;;;;;;5086068;28;19919;-68
2023/12/03 02:28:58;;;;;;;;;;;2.10;97.10;;;;;;5104061;28;20646;-68
2023/12/03 02:31:25;;;;;;;;;;;2.10;97.10;;;;;;5093496;28;19995;-68
2023/12/03 02:33:55;;;;;;;;;;;2.10;97.10;;;;;;5084368;28;19969;-68
2023/12/03 02:36:20;;;;;;;;;;;2.10;97.10;;;;;;5103208;28;19950;-68
2023/12/03 02:38:46;;;;;;;;;;;2.20;97.10;;;;;;5097160;28;19955;-68
2023/12/03 02:41:11;;;;;;;;;;;2.10;97.10;;;;;;5104913;28;19942;-68
2023/12/03 02:43:37;;;;;;;;;;;2.10;97.10;;;;;;5098805;28;20007;-68
2023/12/03 02:46:03;;;;;;;;;;;2.10;97.20;;;;;;5108635;28;19908;-68
2023/12/03 02:48:29;;;;;;;;;;;2.10;97.20;;;;;;5106488;28;20014;-68
2023/12/03 02:50:54;;;;;;;;;;;2.10;97.30;;;;;;5101958;28;20010;-68
2023/12/03 02:53:20;;;;;;;;;;;2.10;97.30;;;;;;5086915;28;19951;-68
2023/12/03 02:55:45;;;;;;;;;;;2.10;97.40;;;;;;5102819;28;20268;-68
2023/12/03 02:58:11;;;;;;;;;;;2.10;97.40;;;;;;5097690;28;20034;-69
2023/12/03 03:00:36;;;;;;;;;;;2.10;97.40;;;;;;5077893;28;19911;-68
2023/12/03 03:03:02;;;;;;;;;;;2.10;97.40;;;;;;5101614;28;19983;-68
2023/12/03 03:05:27;;;;;;;;;;;2.10;97.40;;;;;;5095934;28;19923;-68
2023/12/03 03:07:53;;;;;;;;;;;2.10;97.40;;;;;;5101694;28;19985;-68
2023/12/03 03:10:19;;;;;;;;;;;2.10;97.50;;;;;;5099560;28;19912;-68
2023/12/03 03:12:44;;;;;;;;;;;2.10;97.40;;;;;;5107920;28;19930;-68
2023/12/03 03:15:10;;;;;;;;;;;2.20;97.40;;;;;;5089396;28;19923;-69
2023/12/03 03:17:35;;;;;;;;;;;2.20;97.40;;;;;;5107516;28;19911;-68
2023/12/03 03:20:01;;;;;;;;;;;2.20;97.40;;;;;;5107983;28;19950;-68
2023/12/03 03:22:26;;;;;;;;;;;2.10;97.40;;;;;;5107224;28;19915;-68
2023/12/03 03:24:52;;;;;;;;;;;2.10;97.40;;;;;;5107579;28;19915;-68
2023/12/03 03:27:18;;;;;;;;;;;2.20;97.50;;;;;;5098962;28;19965;-68
2023/12/03 03:29:43;;;;;;;;;;;2.20;97.60;;;;;;5100944;28;20319;-68
2023/12/03 03:32:09;;;;;;;;;;;2.20;97.50;;;;;;5103257;28;20764;-68
2023/12/03 03:34:34;;;;;;;;;;;2.20;97.50;;;;;;5107085;28;19965;-68
2023/12/03 03:37:00;;;;;;;;;;;2.20;97.50;;;;;;5080861;28;19919;-68
2023/12/03 03:39:26;;;;;;;;;;;2.20;97.50;;;;;;5107465;28;19912;-68
2023/12/03 03:41:51;;;;;;;;;;;2.20;97.50;;;;;;5107422;28;20017;-68
2023/12/03 03:44:17;;;;;;;;;;;2.20;97.80;;;;;;5103559;28;19912;-69
2023/12/03 03:46:42;;;;;;;;;;;2.10;97.70;;;;;;5099853;28;20623;-68
2023/12/03 03:49:08;;;;;;;;;;;2.20;97.60;;;;;;5107535;28;19951;-68
2023/12/03 03:51:33;;;;;;;;;;;2.20;97.60;;;;;;5098951;28;19916;-69
2023/12/03 03:53:59;;;;;;;;;;;2.20;97.60;;;;;;5100435;28;20003;-68
2023/12/03 03:56:24;;;;;;;;;;;2.20;97.70;;;;;;5096123;28;19907;-68
2023/12/03 03:58:50;;;;;;;;;;;2.20;97.60;;;;;;5102004;28;19979;-68
2023/12/03 04:01:16;;;;;;;;;;;2.20;97.70;;;;;;5095719;28;19911;-68
2023/12/03 04:03:42;;;;;;;;;;;2.20;97.70;;;;;;5090982;28;19918;-68
2023/12/03 04:06:08;;;;;;;;;;;2.20;97.70;;;;;;5072811;28;19912;-68
2023/12/03 04:08:34;;;;;;;;;;;2.20;97.70;;;;;;5105790;28;19916;-68
2023/12/03 04:11:03;;;;;;;;;;;2.20;97.70;;;;;;5106917;28;20001;-68
2023/12/03 04:13:28;;;;;;;;;;;2.20;97.70;;;;;;5106437;28;19998;-68
2023/12/03 04:15:54;;;;;;;;;;;2.20;97.70;;;;;;5101140;28;20440;-68
2023/12/03 04:18:20;;;;;;;;;;;2.20;97.80;;;;;;5095201;28;19912;-69
2023/12/03 04:20:45;;;;;;;;;;;2.20;97.70;;;;;;5098641;28;19912;-68
2023/12/03 04:23:11;;;;;;;;;;;2.20;97.80;;;;;;5105471;27;20049;-68
2023/12/03 04:25:36;;;;;;;;;;;2.20;97.70;;;;;;5106087;28;19919;-68
2023/12/03 04:28:02;;;;;;;;;;;2.20;97.60;;;;;;5100168;28;20070;-68
2023/12/03 04:30:28;;;;;;;;;;;2.20;97.70;;;;;;5093578;28;20669;-68
2023/12/03 04:32:53;;;;;;;;;;;2.20;97.70;;;;;;5106117;28;19916;-68
2023/12/03 04:35:19;;;;;;;;;;;2.20;97.80;;;;;;5097215;28;19922;-68
2023/12/03 04:37:45;;;;;;;;;;;2.20;97.70;;;;;;5090215;28;20382;-68
2023/12/03 04:40:11;;;;;;;;;;;2.20;97.70;;;;;;5106620;28;19912;-68
2023/12/03 04:42:36;;;;;;;;;;;2.30;97.70;;;;;;5084849;28;19916;-68
2023/12/03 04:45:02;;;;;;;;;;;2.30;97.70;;;;;;5103156;27;20422;-68
2023/12/03 04:47:28;;;;;;;;;;;2.20;97.70;;;;;;5100328;28;19922;-68
2023/12/03 04:49:54;;;;;;;;;;;2.20;97.70;;;;;;5099522;28;20002;-68
2023/12/03 04:52:20;;;;;;;;;;;2.20;97.70;;;;;;5106038;28;20006;-68
2023/12/03 04:54:45;;;;;;;;;;;2.20;97.80;;;;;;5101659;28;20014;-68
2023/12/03 04:57:11;;;;;;;;;;;2.20;97.80;;;;;;5100477;28;19911;-68
2023/12/03 04:59:36;;;;;;;;;;;2.20;97.80;;;;;;5082338;28;19981;-68
2023/12/03 05:02:02;;;;;;;;;;;2.20;97.80;;;;;;5102466;28;19978;-69
2023/12/03 05:04:27;;;;;;;;;;;2.20;97.80;;;;;;5097172;28;19981;-69
2023/12/03 05:06:53;;;;;;;;;;;2.20;97.80;;;;;;5105309;28;19918;-68
2023/12/03 05:09:18;;;;;;;;;;;2.20;97.80;;;;;;5105041;28;19954;-68
2023/12/03 05:11:44;;;;;;;;;;;2.20;97.80;;;;;;5097656;28;19916;-68
2023/12/03 05:14:10;;;;;;;;;;;2.20;97.80;;;;;;5105349;28;19922;-68
2023/12/03 05:16:36;;;;;;;;;;;2.20;97.80;;;;;;5088203;28;19912;-69
2023/12/03 05:19:01;;;;;;;;;;;2.20;97.80;;;;;;5099129;28;19961;-68
2023/12/03 05:21:27;;;;;;;;;;;2.20;97.80;;;;;;5093436;28;20361;-68
2023/12/03 05:23:52;;;;;;;;;;;2.20;97.80;;;;;;5098493;28;20727;-68
2023/12/03 05:26:18;;;;;;;;;;;2.20;97.80;;;;;;5096321;28;19918;-68
2023/12/03 05:28:44;;;;;;;;;;;2.20;97.80;;;;;;5092252;28;19912;-69
2023/12/03 05:31:09;;;;;;;;;;;2.20;97.80;;;;;;5084525;28;19911;-68
2023/12/03 05:33:35;;;;;;;;;;;2.20;97.80;;;;;;5104435;28;19908;-68
2023/12/03 05:36:00;;;;;;;;;;;2.20;97.80;;;;;;5104617;28;19923;-68
2023/12/03 05:38:26;;;;;;;;;;;2.20;97.90;;;;;;5102521;28;19957;-68
2023/12/03 05:40:51;;;;;;;;;;;2.20;97.90;;;;;;5089848;27;19915;-68
2023/12/03 05:43:17;;;;;;;;;;;2.20;97.90;;;;;;5079266;28;20422;-68
2023/12/03 05:45:42;;;;;;;;;;;2.20;97.90;;;;;;5087525;28;19946;-68
2023/12/03 05:48:08;;;;;;;;;;;2.20;97.90;;;;;;5098052;28;19912;-68
2023/12/03 05:50:34;;;;;;;;;;;2.20;97.90;;;;;;5086652;28;19919;-68
2023/12/03 05:52:59;;;;;;;;;;;2.20;97.80;;;;;;5094229;28;19912;-68
2023/12/03 05:55:25;;;;;;;;;;;2.20;97.90;;;;;;5085147;28;19916;-68
2023/12/03 05:57:50;;;;;;;;;;;2.20;97.80;;;;;;5074819;28;19919;-68
2023/12/03 06:00:16;;;;;;;;;;;2.20;97.80;;;;;;5100301;28;19920;-68
2023/12/03 06:02:42;;;;;;;;;;;2.20;97.80;;;;;;5092851;28;19912;-68
2023/12/03 06:05:08;;;;;;;;;;;2.20;97.90;;;;;;5099176;28;19947;-68
2023/12/03 06:07:34;;;;;;;;;;;2.20;97.90;;;;;;5084062;28;19915;-68
2023/12/03 06:09:59;;;;;;;;;;;2.20;97.80;;;;;;5073034;28;19919;-68
2023/12/03 06:12:25;;;;;;;;;;;2.20;97.80;;;;;;5103767;28;19919;-68
2023/12/03 06:14:50;;;;;;;;;;;2.20;97.80;;;;;;5097585;28;19916;-68
2023/12/03 06:17:16;;;;;;;;;;;2.20;97.90;;;;;;5097433;28;20769;-69
2023/12/03 06:19:41;;;;;;;;;;;2.20;97.80;;;;;;5091735;28;19908;-68
2023/12/03 06:22:07;;;;;;;;;;;2.20;97.90;;;;;;5102165;28;19908;-68
2023/12/03 06:24:33;;;;;;;;;;;2.20;97.90;;;;;;5107246;28;20237;-68
2023/12/03 06:26:58;;;;;;;;;;;2.20;97.90;;;;;;5100445;28;19918;-69
2023/12/03 06:29:24;;;;;;;;;;;2.20;97.90;;;;;;5104875;28;20446;-69
2023/12/03 06:31:49;;;;;;;;;;;2.20;97.90;;;;;;5097264;28;19912;-69
2023/12/03 06:34:16;;;;;;;;;;;2.30;97.90;;;;;;5105027;28;20295;-68
2023/12/03 06:36:41;;;;;;;;;;;2.30;97.90;;;;;;5098955;28;20010;-68
2023/12/03 06:39:07;;;;;;;;;;;2.20;97.90;;;;;;5097641;28;19998;-68
2023/12/03 06:41:33;;;;;;;;;;;2.30;97.90;;;;;;5088771;28;19908;-68
2023/12/03 06:43:58;;;;;;;;;;;2.20;97.90;;;;;;5102781;28;19912;-69
2023/12/03 06:46:24;;;;;;;;;;;2.20;97.90;;;;;;5097095;28;19926;-68
2023/12/03 06:48:49;;;;;;;;;;;2.30;97.90;;;;;;5104345;28;20442;-68
2023/12/03 06:51:15;;;;;;;;;;;2.30;97.90;;;;;;5104556;28;19912;-69
2023/12/03 06:53:40;;;;;;;;;;;2.20;97.90;;;;;;5096092;28;19916;-69
2023/12/03 06:56:10;;;;;;;;;;;2.20;97.90;;;;;;5101295;28;20291;-68
2023/12/03 06:58:36;;;;;;;;;;;2.30;98.00;;;;;;5087284;28;20002;-69
2023/12/03 07:01:01;;;;;;;;;;;2.20;97.90;;;;;;5093985;28;19998;-68
2023/12/03 07:03:27;;;;;;;;;;;2.30;98.00;;;;;;5090152;28;20529;-68
2023/12/03 07:05:54;;;;;;;;;;;2.30;97.90;;;;;;5103081;28;19981;-68
2023/12/03 07:08:19;;;;;;;;;;;2.30;97.90;;;;;;5096198;28;19955;-69
2023/12/03 07:10:45;;;;;;;;;;;2.30;97.80;;;;;;5091964;28;19939;-68
2023/12/03 07:13:11;;;;;;;;;;;2.30;97.90;;;;;;5083726;28;20537;-69
2023/12/03 07:15:36;;;;;;;;;;;2.30;97.90;;;;;;5089083;28;19919;-68
2023/12/03 07:18:03;;;;;;;;;;;2.30;97.80;;;;;;5093467;28;19908;-68
2023/12/03 07:20:28;;;;;;;;;;;2.30;97.90;;;;;;5105841;28;19968;-69
2023/12/03 07:22:55;;;;;;;;;;;2.30;97.90;;;;;;5108208;28;19919;-69
2023/12/03 07:25:21;;;;;;;;;;;2.30;97.90;;;;;;5107608;28;19919;-69
2023/12/03 07:27:47;;;;;;;;;;;2.30;97.90;;;;;;5108049;28;19936;-69
2023/12/03 07:30:12;;;;;;;;;;;2.30;97.90;;;;;;5097078;28;20591;-68
2023/12/03 07:32:38;;;;;;;;;;;2.30;98.00;;;;;;5098149;28;19912;-69
2023/12/03 07:35:04;;;;;;;;;;;2.30;97.90;;;;;;5107278;28;20284;-69
2023/12/03 07:37:30;;;;;;;;;;;2.30;97.90;;;;;;5107294;28;19912;-68
2023/12/03 07:39:55;;;;;;;;;;;2.30;97.90;;;;;;5081421;28;19918;-69
2023/12/03 07:42:21;;;;;;;;;;;2.30;97.90;;;;;;5107303;28;19911;-69
2023/12/03 07:44:46;;;;;;;;;;;2.30;97.90;;;;;;5107613;28;19911;-68
2023/12/03 07:47:12;;;;;;;;;;;2.30;97.90;;;;;;5107455;28;19914;-68
2023/12/03 07:49:37;;;;;;;;;;;2.30;97.90;;;;;;5077908;28;19912;-68
2023/12/03 07:52:03;;;;;;;;;;;2.30;97.90;;;;;;5101540;28;19916;-69
2023/12/03 07:54:28;;;;;;;;;;;2.30;97.90;;;;;;5106852;28;20069;-69
2023/12/03 07:56:54;;;;;;;;;;;2.30;97.90;;;;;;5096407;28;19912;-68
2023/12/03 07:59:19;;;;;;;;;;;2.30;97.90;;;;;;5086705;28;19916;-68
2023/12/03 08:01:45;;;;;;;;;;;2.30;97.90;;;;;;5088840;28;19942;-69
2023/12/03 08:04:10;;;;;;;;;;;2.30;97.90;;;;;;5107286;28;19916;-68
2023/12/03 08:06:36;;;;;;;;;;;2.30;97.90;;;;;;5098112;28;19966;-68
2023/12/03 08:09:01;;;;;;;;;;;2.30;97.90;;;;;;5101729;28;20426;-68
2023/12/03 08:11:27;;;;;;;;;;;2.30;97.90;;;;;;5102997;27;19913;-68
2023/12/03 08:13:55;;;;;;;;;;;2.30;97.90;;;;;;5098620;28;20385;-68
2023/12/03 08:16:21;;;;;;;;;;;2.30;97.90;;;;;;5098300;28;19916;-68
2023/12/03 08:18:47;;;;;;;;;;;2.30;97.90;;;;;;5096039;28;19922;-68
2023/12/03 08:21:13;;;;;;;;;;;2.30;97.90;;;;;;5083440;28;19912;-69
2023/12/03 08:23:38;;;;;;;;;;;2.30;97.90;;;;;;5094053;28;19923;-69
2023/12/03 08:26:04;;;;;;;;;;;2.40;97.90;;;;;;5092161;28;19915;-68
2023/12/03 08:28:30;;;;;;;;;;;2.40;98.10;;;;;;5071219;28;19908;-68
2023/12/03 08:30:55;;;;;;;;;;;2.40;97.90;;;;;;5076408;28;20018;-69
2023/12/03 08:33:20;;;;;;;;;;;2.30;97.90;;;;;;5097613;28;19916;-68
2023/12/03 08:35:46;;;;;;;;;;;2.30;97.90;;;;;;5097833;28;19923;-69
2023/12/03 08:38:12;;;;;;;;;;;2.30;97.90;;;;;;5098534;28;19919;-68
2023/12/03 08:40:37;;;;;;;;;;;2.30;97.90;;;;;;5068523;28;20281;-69
2023/12/03 08:43:03;;;;;;;;;;;2.30;97.90;;;;;;5100219;28;20488;-68
2023/12/03 08:45:29;;;;;;;;;;;2.30;97.90;;;;;;5091076;28;20402;-68
2023/12/03 08:47:55;;;;;;;;;;;2.30;97.90;;;;;;5106813;28;19934;-69
2023/12/03 08:50:26;;;;;;;;;;;2.30;97.90;;;;;;5106147;28;19911;-68
2023/12/03 08:52:52;;;;;;;;;;;2.40;97.90;;;;;;5106327;28;19908;-68
2023/12/03 08:55:18;;;;;;;;;;;2.40;97.90;;;;;;5104273;28;19956;-68
2023/12/03 08:57:43;;;;;;;;;;;2.40;97.90;;;;;;5095917;28;19915;-68
2023/12/03 09:00:10;;;;;;;;;;;2.40;97.80;;;;;;5102544;28;20403;-68
2023/12/03 09:02:36;;;;;;;;;;;2.40;97.90;;;;;;5095101;28;20006;-69
2023/12/03 09:05:01;;;;;;;;;;;2.40;97.90;;;;;;5091205;28;20002;-68
2023/12/03 09:07:30;;;;;;;;;;;2.40;97.90;;;;;;5105886;28;19915;-68
2023/12/03 09:09:56;;;;;;;;;;;2.40;97.90;;;;;;5097596;28;20020;-68
2023/12/03 09:12:21;;;;;;;;;;;2.40;97.80;;;;;;5096937;28;20375;-68
2023/12/03 09:14:47;;;;;;;;;;;2.40;97.80;;;;;;5097311;28;20242;-68
2023/12/03 09:17:12;;;;;;;;;;;2.50;97.80;;;;;;5105756;28;19915;-68
2023/12/03 09:19:38;;;;;;;;;;;2.50;97.70;;;;;;5078670;28;19912;-69
2023/12/03 09:22:03;;;;;;;;;;;2.50;97.70;;;;;;5102451;28;19919;-68
2023/12/03 09:24:30;;;;;;;;;;;2.50;97.70;;;;;;5078841;28;19915;-69
2023/12/03 09:26:56;;;;;;;;;;;2.50;97.70;;;;;;5097393;28;19911;-68
2023/12/03 09:29:21;;;;;;;;;;;2.50;97.70;;;;;;5101410;28;19912;-68
2023/12/03 09:31:47;;;;;;;;;;;2.40;97.70;;;;;;5097262;28;19919;-68
2023/12/03 09:34:12;;;;;;;;;;;2.40;97.80;;;;;;5105356;28;19916;-68
2023/12/03 09:36:38;;;;;;;;;;;2.40;97.70;;;;;;5096514;28;19912;-69
2023/12/03 09:39:06;;;;;;;;;;;2.40;97.80;;;;;;5099609;28;19916;-69
2023/12/03 09:41:35;;;;;;;;;;;2.40;97.70;;;;;;5103045;28;19911;-68
2023/12/03 09:44:07;;;;;;;;;;;2.40;97.70;;;;;;5096921;28;19908;-69
2023/12/03 09:46:34;;;;;;;;;;;2.40;97.60;;;;;;5104693;28;19946;-69
2023/12/03 09:49:00;;;;;;;;;;;2.40;97.70;;;;;;5099682;28;19908;-68
2023/12/03 09:51:26;;;;;;;;;;;2.40;97.70;;;;;;5101740;28;20241;-69
2023/12/03 09:53:53;;;;;;;;;;;2.50;97.70;;;;;;5069598;28;20037;-68
2023/12/03 09:56:18;;;;;;;;;;;2.40;97.70;;;;;;5070322;28;19916;-69
2023/12/03 09:58:45;;;;;;;;;;;2.40;97.70;;;;;;5095825;28;19922;-69
2023/12/03 10:01:10;;;;;;;;;;;2.40;97.70;;;;;;5084572;28;19908;-69
2023/12/03 10:03:36;;;;;;;;;;;2.40;97.70;;;;;;5104728;28;20261;-69
2023/12/03 10:06:02;;;;;;;;;;;2.50;97.70;;;;;;5104617;28;19922;-68
2023/12/03 10:08:28;;;;;;;;;;;2.40;97.60;;;;;;5104190;28;19907;-69
2023/12/03 10:10:59;;;;;;;;;;;2.50;97.70;;;;;;5088356;28;20038;-69
2023/12/03 10:13:25;;;;;;;;;;;2.50;97.60;;;;;;5093375;28;20496;-68
2023/12/03 10:15:51;;;;;;;;;;;2.50;97.60;;;;;;5104605;28;20463;-69
2023/12/03 10:18:18;;;;;;;;;;;2.50;97.60;;;;;;5089600;28;20019;-68
2023/12/03 10:20:44;;;;;;;;;;;2.50;97.60;;;;;;5069142;28;20005;-68
2023/12/03 10:23:14;;;;;;;;;;;2.50;97.60;;;;;;5092470;28;20326;-68
2023/12/03 10:25:39;;;;;;;;;;;2.50;97.50;;;;;;5091290;28;19953;-69
2023/12/03 10:28:06;;;;;;;;;;;2.50;97.60;;;;;;5097946;28;20586;-68
2023/12/03 10:30:32;;;;;;;;;;;2.50;97.50;;;;;;5090720;28;19912;-68
2023/12/03 10:32:57;;;;;;;;;;;2.50;97.50;;;;;;5085156;28;20361;-69
2023/12/03 10:35:23;;;;;;;;;;;2.50;97.50;;;;;;5102759;28;20023;-69
2023/12/03 10:37:49;;;;;;;;;;;2.50;97.50;;;;;;5095488;28;19930;-69
2023/12/03 10:40:15;;;;;;;;;;;2.50;97.50;;;;;;5095287;28;19911;-69
2023/12/03 10:42:41;;;;;;;;;;;2.60;97.50;;;;;;5097707;28;19966;-69
2023/12/03 10:45:10;;;;;;;;;;;2.60;97.50;;;;;;5102927;28;19908;-68
2023/12/03 10:47:37;;;;;;;;;;;2.60;97.50;;;;;;5102817;28;20276;-68
2023/12/03 10:50:05;;;;;;;;;;;2.60;97.40;;;;;;5079522;28;19912;-69
2023/12/03 10:52:31;;;;;;;;;;;2.60;97.50;;;;;;5070147;28;20318;-69
2023/12/03 10:54:57;;;;;;;;;;;2.60;97.40;;;;;;5067837;28;20007;-68
2023/12/03 10:57:32;;;;;;;;;;;2.60;97.50;;;;;;5100844;28;19939;-69
2023/12/03 11:00:05;;;;;;;;;;;2.60;97.40;;;;;;5089498;28;19973;-69
2023/12/03 11:02:34;;;;;;;;;;;2.60;97.40;;;;;;5048178;28;20518;-69
2023/12/03 11:05:03;;;;;;;;;;;2.60;97.40;;;;;;5100510;28;19920;-68
2023/12/03 11:07:30;;;;;;;;;;;2.60;97.30;;;;;;5069879;28;20177;-69
2023/12/03 11:09:56;;;;;;;;;;;2.60;97.30;;;;;;5073166;28;19916;-68
2023/12/03 11:12:23;;;;;;;;;;;2.70;97.50;;;;;;5098696;28;20438;-68
2023/12/03 11:14:48;;;;;;;;;;;2.70;97.40;;;;;;5082975;28;20018;-69
2023/12/03 11:17:17;;;;;;;;;;;2.70;97.30;;;;;;5090231;28;20009;-68
2023/12/03 11:19:45;;;;;;;;;;;2.70;97.30;;;;;;5091571;28;20411;-68
2023/12/03 11:22:10;;;;;;;;;;;2.70;97.40;;;;;;5088186;28;20341;-69
2023/12/03 11:24:50;;;;;;;;;;;2.70;97.30;;;;;;5104365;28;19939;-68
2023/12/03 11:27:15;;;;;;;;;;;2.70;97.30;;;;;;5086651;28;19935;-68
2023/12/03 11:29:50;;;;;;;;;;;2.80;97.40;;;;;;5084975;28;20365;-69
2023/12/03 11:32:16;;;;;;;;;;;2.80;97.40;;;;;;5089610;28;19927;-68
2023/12/03 11:34:42;;;;;;;;;;;2.80;97.30;;;;;;5094723;28;20284;-68
2023/12/03 11:37:13;;;;;;;;;;;2.80;97.30;;;;;;5100667;28;19912;-69
2023/12/03 11:39:42;;;;;;;;;;;2.80;97.30;;;;;;5095616;28;19918;-69
2023/12/03 11:42:09;;;;;;;;;;;2.80;97.30;;;;;;5068059;28;19912;-69
2023/12/03 11:44:34;;;;;;;;;;;2.80;97.40;;;;;;5085730;28;19959;-68
2023/12/03 11:47:04;;;;;;;;;;;2.80;97.40;;;;;;5085726;28;19966;-68
2023/12/03 11:49:29;;;;;;;;;;;2.80;97.30;;;;;;5098461;28;20019;-69
2023/12/03 11:51:55;;;;;;;;;;;2.80;97.30;;;;;;5086035;28;19943;-68
2023/12/03 11:54:24;;;;;;;;;;;2.80;97.30;;;;;;5085785;28;19923;-69
2023/12/03 11:56:50;;;;;;;;;;;2.80;97.30;;;;;;5090386;28;20006;-69
2023/12/03 11:59:15;;;;;;;;;;;2.80;97.30;;;;;;5093496;28;20040;-69
2023/12/03 12:01:41;;;;;;;;;;;2.80;97.30;;;;;;5070537;28;20110;-69
2023/12/03 12:04:06;;;;;;;;;;;2.80;97.30;;;;;;5084275;28;19916;-69
2023/12/03 12:06:33;;;;;;;;;;;2.80;97.20;;;;;;5068344;28;20245;-68
2023/12/03 12:08:59;;;;;;;;;;;2.90;97.20;;;;;;5086630;28;20622;-69
2023/12/03 12:11:24;;;;;;;;;;;2.90;97.20;;;;;;5082213;28;19912;-69
2023/12/03 12:13:50;;;;;;;;;;;2.90;97.20;;;;;;5084794;28;19918;-69
2023/12/03 12:16:16;;;;;;;;;;;2.90;97.20;;;;;;5086954;28;20902;-69
2023/12/03 12:18:41;;;;;;;;;;;2.90;97.20;;;;;;5085063;28;19908;-69
2023/12/03 12:21:10;;;;;;;;;;;2.90;97.20;;;;;;5088052;28;19916;-68
2023/12/03 12:23:35;;;;;;;;;;;2.90;97.20;;;;;;5071106;28;19912;-69
2023/12/03 12:26:01;;;;;;;;;;;2.90;97.20;;;;;;5101383;27;19908;-68
2023/12/03 12:28:26;;;;;;;;;;;2.90;97.20;;;;;;5084038;28;19955;-68
2023/12/03 12:30:54;;;;;;;;;;;2.90;97.20;;;;;;5083895;28;19908;-68
2023/12/03 12:33:19;;;;;;;;;;;2.90;97.10;;;;;;5084644;28;19912;-68
2023/12/03 12:35:48;;;;;;;;;;;3.00;97.10;;;;;;5085100;28;19992;-69
2023/12/03 12:38:14;;;;;;;;;;;3.00;97.10;;;;;;5085199;28;19959;-68
2023/12/03 12:40:50;;;;;;;;;;;3.00;97.10;;;;;;5087239;28;20305;-69
2023/12/03 12:43:17;;;;;;;;;;;3.00;97.10;;;;;;5097200;28;19916;-69
2023/12/03 12:45:42;;;;;;;;;;;3.00;97.20;;;;;;5084702;28;19978;-69
2023/12/03 12:48:22;;;;;;;;;;;3.00;97.10;;;;;;5084344;28;20641;-68
2023/12/03 12:50:47;;;;;;;;;;;3.00;97.20;;;;;;5082908;28;19911;-68
2023/12/03 12:53:13;;;;;;;;;;;3.00;97.20;;;;;;5084481;28;20422;-69
2023/12/03 12:55:38;;;;;;;;;;;3.00;97.20;;;;;;5083812;28;19916;-69
2023/12/03 12:58:04;;;;;;;;;;;2.90;97.20;;;;;;5085304;28;20014;-68
2023/12/03 13:00:30;;;;;;;;;;;3.00;97.20;;;;;;5086467;28;19961;-69
2023/12/03 13:02:56;;;;;;;;;;;3.00;97.20;;;;;;5089108;28;19912;-69
2023/12/03 13:05:23;;;;;;;;;;;3.00;97.20;;;;;;5096607;28;19969;-70
2023/12/03 13:07:50;;;;;;;;;;;3.00;97.20;;;;;;5077857;28;19948;-68
2023/12/03 13:10:15;;;;;;;;;;;3.00;97.20;;;;;;5095219;28;20671;-69
2023/12/03 13:12:41;;;;;;;;;;;3.00;97.20;;;;;;5077531;28;19911;-69
2023/12/03 13:15:08;;;;;;;;;;;3.00;97.20;;;;;;5096022;28;19919;-68
2023/12/03 13:17:44;;;;;;;;;;;3.00;97.30;;;;;;5095808;28;19923;-69
2023/12/03 13:20:10;;;;;;;;;;;3.00;97.20;;;;;;5096382;28;19915;-69
2023/12/03 13:22:36;;;;;;;;;;;3.00;97.30;;;;;;5085708;28;20315;-68
2023/12/03 13:25:01;;;;;;;;;;;3.00;97.20;;;;;;5083614;28;19919;-68
2023/12/03 13:27:27;;;;;;;;;;;3.00;97.20;;;;;;5084008;28;19972;-69
2023/12/03 13:29:54;;;;;;;;;;;3.00;97.20;;;;;;5084179;28;19912;-69
2023/12/03 13:32:19;;;;;;;;;;;3.00;97.20;;;;;;5065243;28;19918;-68
2023/12/03 13:34:45;;;;;;;;;;;3.00;97.20;;;;;;5083613;28;19920;-68
2023/12/03 13:37:10;;;;;;;;;;;3.00;97.20;;;;;;5083590;28;20014;-69
2023/12/03 13:39:36;;;;;;;;;;;3.00;97.20;;;;;;5083746;28;19908;-68
2023/12/03 13:42:01;;;;;;;;;;;3.00;97.30;;;;;;5092300;28;20401;-69
2023/12/03 13:44:27;;;;;;;;;;;3.00;97.30;;;;;;5091413;28;19923;-69
2023/12/03 13:46:57;;;;;;;;;;;3.00;97.30;;;;;;5083908;28;19915;-68
2023/12/03 13:49:22;;;;;;;;;;;3.00;97.20;;;;;;5100139;28;19915;-69
2023/12/03 13:51:48;;;;;;;;;;;3.00;97.30;;;;;;5100310;28;19912;-69
2023/12/03 13:54:13;;;;;;;;;;;3.10;97.50;;;;;;5084243;28;19953;-69
2023/12/03 13:56:39;;;;;;;;;;;3.00;97.20;;;;;;5062636;28;19944;-68
2023/12/03 13:59:04;;;;;;;;;;;3.00;97.20;;;;;;5083553;28;19912;-69
2023/12/03 14:01:30;;;;;;;;;;;3.00;97.20;;;;;;5099724;28;19952;-68
2023/12/03 14:03:55;;;;;;;;;;;3.00;97.30;;;;;;5084506;28;20250;-69
2023/12/03 14:06:21;;;;;;;;;;;3.00;97.50;;;;;;5098287;27;20015;-68
2023/12/03 14:08:46;;;;;;;;;;;3.00;97.20;;;;;;5094912;28;20288;-69
2023/12/03 14:11:12;;;;;;;;;;;3.00;97.30;;;;;;5103541;28;19994;-68
2023/12/03 14:13:37;;;;;;;;;;;3.00;97.20;;;;;;5094763;28;20363;-68
2023/12/03 14:16:03;;;;;;;;;;;3.10;97.20;;;;;;5089357;28;19997;-69
2023/12/03 14:18:29;;;;;;;;;;;3.00;97.20;;;;;;5073513;28;20357;-69
2023/12/03 14:20:55;;;;;;;;;;;3.00;97.20;;;;;;5092646;28;20518;-69
2023/12/03 14:23:21;;;;;;;;;;;3.00;97.30;;;;;;5087758;28;19955;-68